Time,TemperatureF,DewpointF,PressureIn,WindDirection,WindDirectionDegrees,WindSpeedMPH,WindSpeedGustMPH,Humidity,HourlyPrecipIn,Conditions,Clouds,dailyrainin,SolarRadiationWatts/m^2,SoftwareType,DateUTC
2013-06-02 00:14:00,75.9,73.0,30.00,East,90,0.0,-999.0,90,-99.99,,,0.00,0,weatherlink.com 1.10,2013-06-02 04:14:00,
2013-06-02 00:29:00,75.3,73.0,30.00,East,90,0.0,-999.0,91,-99.99,,,0.00,0,weatherlink.com 1.10,2013-06-02 04:29:00,
2013-06-02 00:44:00,75.1,73.0,30.00,East,82,2.0,-999.0,92,-99.99,,,0.00,0,weatherlink.com 1.10,2013-06-02 04:44:00,
2013-06-02 00:58:00,74.8,73.0,29.99,East,94,0.0,-999.0,93,-99.99,,,0.00,0,weatherlink.com 1.10,2013-06-02 04:58:00,
2013-06-02 01:14:00,74.6,73.0,29.99,East,97,0.0,-999.0,93,-99.99,,,0.00,0,weatherlink.com 1.10,2013-06-02 05:14:00,
2013-06-02 01:29:00,74.6,73.0,29.98,East,91,2.0,-999.0,94,-99.99,,,0.00,0,weatherlink.com 1.10,2013-06-02 05:29:00,
2013-06-02 01:44:00,74.5,73.0,29.98,ENE,76,0.0,-999.0,94,-99.99,,,0.00,0,weatherlink.com 1.10,2013-06-02 05:44:00,
2013-06-02 01:59:00,74.4,73.0,29.97,ENE,76,0.0,-999.0,94,-99.99,,,0.00,0,weatherlink.com 1.10,2013-06-02 05:59:00,
2013-06-02 02:14:00,74.4,73.0,29.96,ENE,76,0.0,-999.0,95,-99.99,,,0.00,0,weatherlink.com 1.10,2013-06-02 06:14:00,
2013-06-02 02:29:00,74.3,73.0,29.96,ENE,76,0.0,-999.0,95,-99.99,,,0.00,0,weatherlink.com 1.10,2013-06-02 06:29:00,
2013-06-02 02:44:00,74.4,73.0,29.96,ENE,76,0.0,-999.0,95,-99.99,,,0.00,0,weatherlink.com 1.10,2013-06-02 06:44:00,
2013-06-02 02:59:00,74.3,73.0,29.95,ENE,76,0.0,-999.0,95,-99.99,,,0.00,0,weatherlink.com 1.10,2013-06-02 06:59:00,
2013-06-02 03:14:00,74.2,73.0,29.95,ENE,75,0.0,-999.0,95,-99.99,,,0.00,0,weatherlink.com 1.10,2013-06-02 07:14:00,
2013-06-02 03:29:00,74.3,73.0,29.95,ENE,75,0.0,-999.0,95,-99.99,,,0.00,0,weatherlink.com 1.10,2013-06-02 07:29:00,
2013-06-02 03:44:00,74.4,73.0,29.96,ENE,75,0.0,-999.0,96,-99.99,,,0.00,0,weatherlink.com 1.10,2013-06-02 07:44:00,
2013-06-02 03:59:00,74.9,74.0,29.95,ENE,75,0.0,-999.0,96,-99.99,,,0.00,0,weatherlink.com 1.10,2013-06-02 07:59:00,
2013-06-02 04:14:00,75.3,74.0,29.95,ENE,75,0.0,-999.0,96,-99.99,,,0.00,0,weatherlink.com 1.10,2013-06-02 08:14:00,
2013-06-02 04:29:00,75.2,74.0,29.95,ENE,75,0.0,-999.0,96,-99.99,,,0.00,0,weatherlink.com 1.10,2013-06-02 08:29:00,
2013-06-02 04:44:00,75.3,74.0,29.95,ENE,75,0.0,-999.0,96,-99.99,,,0.00,0,weatherlink.com 1.10,2013-06-02 08:44:00,
2013-06-02 04:59:00,75.5,74.0,29.95,ENE,77,0.0,-999.0,96,-99.99,,,0.00,0,weatherlink.com 1.10,2013-06-02 08:59:00,
2013-06-02 05:14:00,74.3,73.0,29.95,East,94,2.0,-999.0,95,-99.99,,,0.00,0,weatherlink.com 1.10,2013-06-02 09:14:00,
2013-06-02 05:29:00,73.9,72.0,29.95,East,97,0.0,-999.0,95,-99.99,,,0.00,0,weatherlink.com 1.10,2013-06-02 09:29:00,
2013-06-02 05:44:00,73.9,73.0,29.96,ESE,104,0.0,-999.0,96,-99.99,,,0.00,0,weatherlink.com 1.10,2013-06-02 09:44:00,
2013-06-02 05:59:00,73.9,73.0,29.96,ESE,114,0.0,-999.0,96,-99.99,,,0.00,0,weatherlink.com 1.10,2013-06-02 09:59:00,
2013-06-02 06:14:00,74.0,73.0,29.96,ESE,115,0.0,-999.0,96,-99.99,,,0.00,0,weatherlink.com 1.10,2013-06-02 10:14:00,
2013-06-02 06:29:00,74.1,73.0,29.97,ESE,115,0.0,-999.0,96,-99.99,,,0.00,0,weatherlink.com 1.10,2013-06-02 10:29:00,
2013-06-02 06:44:00,74.5,73.0,29.98,ESE,115,0.0,-999.0,96,-99.99,,,0.00,9,weatherlink.com 1.10,2013-06-02 10:44:00,
2013-06-02 06:59:00,74.7,74.0,29.98,ESE,117,0.0,-999.0,96,-99.99,,,0.00,26,weatherlink.com 1.10,2013-06-02 10:59:00,
2013-06-02 07:14:00,75.1,74.0,29.98,ESE,109,0.0,-999.0,96,-99.99,,,0.00,47,weatherlink.com 1.10,2013-06-02 11:14:00,
2013-06-02 07:29:00,75.3,74.0,29.98,ESE,106,0.0,-999.0,95,-99.99,,,0.00,76,weatherlink.com 1.10,2013-06-02 11:29:00,
2013-06-02 07:45:00,76.9,75.0,29.99,ESE,109,0.0,-999.0,95,-99.99,,,0.00,199,weatherlink.com 1.10,2013-06-02 11:45:00,
2013-06-02 07:59:00,78.8,76.0,30.00,East,80,3.0,-999.0,91,-99.99,,,0.00,127,weatherlink.com 1.10,2013-06-02 11:59:00,
2013-06-02 08:14:00,79.3,76.0,30.01,SE,135,0.0,-999.0,90,-99.99,,,0.00,322,weatherlink.com 1.10,2013-06-02 12:14:00,
2013-06-02 08:29:00,81.7,78.0,30.00,SSE,159,0.0,-999.0,87,-99.99,,,0.00,316,weatherlink.com 1.10,2013-06-02 12:29:00,
2013-06-02 08:44:00,83.4,78.0,30.00,SSE,161,0.0,-999.0,83,-99.99,,,0.00,362,weatherlink.com 1.10,2013-06-02 12:44:00,
2013-06-02 08:59:00,84.5,78.0,30.00,SE,144,0.0,-999.0,80,-99.99,,,0.00,438,weatherlink.com 1.10,2013-06-02 12:59:00,
2013-06-02 09:14:00,84.7,78.0,30.00,SE,135,0.0,-999.0,81,-99.99,,,0.00,515,weatherlink.com 1.10,2013-06-02 13:14:00,
2013-06-02 09:29:00,86.6,79.0,29.99,ENE,78,0.0,-999.0,77,-99.99,,,0.00,519,weatherlink.com 1.10,2013-06-02 13:29:00,
2013-06-02 09:44:00,86.8,78.0,29.99,SSE,152,0.0,-999.0,76,-99.99,,,0.00,577,weatherlink.com 1.10,2013-06-02 13:44:00,
2013-06-02 09:59:00,87.2,78.0,29.99,SSW,209,0.0,-999.0,73,-99.99,,,0.00,652,weatherlink.com 1.10,2013-06-02 13:59:00,
2013-06-02 10:14:00,87.2,78.0,29.99,SSE,161,1.0,-999.0,74,-99.99,,,0.00,726,weatherlink.com 1.10,2013-06-02 14:14:00,
2013-06-02 10:29:00,87.6,78.0,29.99,SW,234,0.0,-999.0,73,-99.99,,,0.00,833,weatherlink.com 1.10,2013-06-02 14:29:00,
2013-06-02 10:44:00,87.5,79.0,29.99,SSE,162,1.0,-999.0,75,-99.99,,,0.00,780,weatherlink.com 1.10,2013-06-02 14:44:00,
2013-06-02 10:59:00,89.7,80.0,29.99,SW,218,0.0,-999.0,72,-99.99,,,0.00,854,weatherlink.com 1.10,2013-06-02 14:59:00,
2013-06-02 11:14:00,88.5,78.0,29.99,WSW,250,0.0,-999.0,71,-99.99,,,0.00,916,weatherlink.com 1.10,2013-06-02 15:14:00,
2013-06-02 11:29:00,88.0,78.0,29.99,WSW,240,0.0,-999.0,73,-99.99,,,0.00,858,weatherlink.com 1.10,2013-06-02 15:29:00,
2013-06-02 11:44:00,89.4,78.0,29.99,SSW,212,2.0,-999.0,70,-99.99,,,0.00,921,weatherlink.com 1.10,2013-06-02 15:44:00,
2013-06-02 11:59:00,89.1,77.0,29.99,SSW,213,0.0,-999.0,68,-99.99,,,0.00,241,weatherlink.com 1.10,2013-06-02 15:59:00,
2013-06-02 12:14:00,88.2,78.0,29.99,SSE,149,0.0,-999.0,72,-99.99,,,0.00,803,weatherlink.com 1.10,2013-06-02 16:14:00,
2013-06-02 12:29:00,88.1,78.0,29.98,SSW,194,0.0,-999.0,72,-99.99,,,0.00,947,weatherlink.com 1.10,2013-06-02 16:29:00,
2013-06-02 12:44:00,87.9,77.0,29.98,WSW,251,2.0,-999.0,70,-99.99,,,0.00,984,weatherlink.com 1.10,2013-06-02 16:44:00,
2013-06-02 12:59:00,88.2,78.0,29.97,ESE,104,0.0,-999.0,72,-99.99,,,0.00,998,weatherlink.com 1.10,2013-06-02 16:59:00,
2013-06-02 13:14:00,89.1,77.0,29.97,WSW,240,0.0,-999.0,68,-99.99,,,0.00,322,weatherlink.com 1.10,2013-06-02 17:14:00,
2013-06-02 13:29:00,88.4,78.0,29.97,WNW,287,1.0,-999.0,70,-99.99,,,0.00,1016,weatherlink.com 1.10,2013-06-02 17:29:00,
2013-06-02 13:44:00,88.8,76.0,29.97,WSW,254,3.0,-999.0,67,-99.99,,,0.00,536,weatherlink.com 1.10,2013-06-02 17:44:00,
2013-06-02 13:59:00,87.8,76.0,29.97,WSW,251,3.0,-999.0,68,-99.99,,,0.00,805,weatherlink.com 1.10,2013-06-02 17:59:00,
2013-06-02 14:14:00,88.5,76.0,29.97,WSW,250,5.0,-999.0,66,-99.99,,,0.00,909,weatherlink.com 1.10,2013-06-02 18:14:00,
2013-06-02 14:29:00,88.6,75.0,29.96,WSW,257,2.0,-999.0,65,-99.99,,,0.00,795,weatherlink.com 1.10,2013-06-02 18:29:00,
2013-06-02 14:44:00,88.6,76.0,29.97,SW,221,0.0,-999.0,67,-99.99,,,0.00,979,weatherlink.com 1.10,2013-06-02 18:44:00,
2013-06-02 14:59:00,89.2,76.0,29.97,WSW,251,1.0,-999.0,66,-99.99,,,0.00,838,weatherlink.com 1.10,2013-06-02 18:59:00,
2013-06-02 15:14:00,89.5,78.0,29.96,WSW,240,0.0,-999.0,69,-99.99,,,0.00,895,weatherlink.com 1.10,2013-06-02 19:14:00,
2013-06-02 15:29:00,90.6,78.0,29.96,WSW,238,0.0,-999.0,67,-99.99,,,0.00,974,weatherlink.com 1.10,2013-06-02 19:29:00,
2013-06-02 15:44:00,89.6,78.0,29.95,SSE,150,0.0,-999.0,68,-99.99,,,0.00,531,weatherlink.com 1.10,2013-06-02 19:44:00,
2013-06-02 15:59:00,86.6,77.0,29.95,WSW,240,0.0,-999.0,74,-99.99,,,0.00,295,weatherlink.com 1.10,2013-06-02 19:59:00,
2013-06-02 16:14:00,85.2,77.0,29.95,SW,236,0.0,-999.0,76,-99.99,,,0.00,536,weatherlink.com 1.10,2013-06-02 20:14:00,
2013-06-02 16:29:00,84.3,76.0,29.95,SW,232,5.0,-999.0,76,-99.99,,,0.00,265,weatherlink.com 1.10,2013-06-02 20:29:00,
2013-06-02 16:44:00,82.9,76.0,29.95,WSW,240,0.0,-999.0,79,-99.99,,,0.00,360,weatherlink.com 1.10,2013-06-02 20:44:00,
2013-06-02 16:59:00,82.5,75.0,29.94,WSW,248,2.0,-999.0,78,-99.99,,,0.00,227,weatherlink.com 1.10,2013-06-02 20:59:00,
2013-06-02 17:14:00,83.2,76.0,29.94,SW,232,1.0,-999.0,78,-99.99,,,0.00,547,weatherlink.com 1.10,2013-06-02 21:14:00,
2013-06-02 17:29:00,83.0,76.0,29.93,WSW,240,2.0,-999.0,78,-99.99,,,0.00,232,weatherlink.com 1.10,2013-06-02 21:29:00,
2013-06-02 17:44:00,83.0,76.0,29.93,SW,227,2.0,-999.0,78,-99.99,,,0.00,213,weatherlink.com 1.10,2013-06-02 21:44:00,
2013-06-02 17:59:00,82.1,75.0,29.93,WSW,243,0.0,-999.0,79,-99.99,,,0.00,167,weatherlink.com 1.10,2013-06-02 21:59:00,
2013-06-02 18:14:00,81.5,75.0,29.93,SW,214,0.0,-999.0,80,-99.99,,,0.00,141,weatherlink.com 1.10,2013-06-02 22:14:00,
2013-06-02 18:29:00,81.2,75.0,29.93,SSW,212,0.0,-999.0,81,-99.99,,,0.00,105,weatherlink.com 1.10,2013-06-02 22:29:00,
2013-06-02 18:44:00,80.7,74.0,29.93,SW,232,0.0,-999.0,79,-99.99,,,0.00,98,weatherlink.com 1.10,2013-06-02 22:44:00,
2013-06-02 18:59:00,80.2,74.0,29.94,South,191,0.0,-999.0,82,-99.99,,,0.00,84,weatherlink.com 1.10,2013-06-02 22:59:00,
2013-06-02 19:14:00,79.8,74.0,29.94,SW,232,0.0,-999.0,82,-99.99,,,0.00,70,weatherlink.com 1.10,2013-06-02 23:14:00,
2013-06-02 19:29:00,79.7,74.0,29.94,SW,214,0.0,-999.0,83,-99.99,,,0.00,65,weatherlink.com 1.10,2013-06-02 23:29:00,
2013-06-02 19:44:00,79.5,74.0,29.94,SSW,213,0.0,-999.0,83,-99.99,,,0.00,47,weatherlink.com 1.10,2013-06-02 23:44:00,
2013-06-02 19:59:00,79.2,74.0,29.94,SW,215,0.0,-999.0,84,-99.99,,,0.00,19,weatherlink.com 1.10,2013-06-02 23:59:00,
2013-06-02 20:14:00,78.8,74.0,29.95,SW,236,4.0,-999.0,84,-99.99,,,0.00,7,weatherlink.com 1.10,2013-06-03 00:14:00,
2013-06-02 20:29:00,78.7,74.0,29.94,SW,236,0.0,-999.0,84,-99.99,,,0.00,0,weatherlink.com 1.10,2013-06-03 00:29:00,
2013-06-02 20:44:00,78.5,74.0,29.95,SW,236,0.0,-999.0,86,-99.99,,,0.00,0,weatherlink.com 1.10,2013-06-03 00:44:00,
2013-06-02 20:59:00,78.5,74.0,29.95,SW,236,0.0,-999.0,86,-99.99,,,0.00,0,weatherlink.com 1.10,2013-06-03 00:59:00,
2013-06-02 21:14:00,78.7,74.0,29.96,SW,236,0.0,-999.0,85,-99.99,,,0.00,0,weatherlink.com 1.10,2013-06-03 01:14:00,
2013-06-02 21:29:00,78.7,74.0,29.96,SW,236,0.0,-999.0,84,-99.99,,,0.00,0,weatherlink.com 1.10,2013-06-03 01:29:00,
2013-06-02 21:44:00,78.7,74.0,29.97,SW,236,0.0,-999.0,84,-99.99,,,0.00,0,weatherlink.com 1.10,2013-06-03 01:44:00,
2013-06-02 21:58:00,78.7,74.0,29.98,SW,236,0.0,-999.0,84,-99.99,,,0.00,0,weatherlink.com 1.10,2013-06-03 01:58:00,
2013-06-02 22:14:00,78.6,73.0,29.98,SW,236,0.0,-999.0,84,-99.99,,,0.00,0,weatherlink.com 1.10,2013-06-03 02:14:00,
2013-06-02 22:29:00,78.6,74.0,29.98,SW,236,0.0,-999.0,85,-99.99,,,0.00,0,weatherlink.com 1.10,2013-06-03 02:29:00,
2013-06-02 22:44:00,78.5,74.0,29.99,SW,236,0.0,-999.0,85,-99.99,,,0.00,0,weatherlink.com 1.10,2013-06-03 02:44:00,
2013-06-02 22:59:00,78.3,74.0,29.99,SW,236,0.0,-999.0,86,-99.99,,,0.00,0,weatherlink.com 1.10,2013-06-03 02:59:00,
2013-06-02 23:14:00,78.0,74.0,29.99,SW,236,0.0,-999.0,87,-99.99,,,0.00,0,weatherlink.com 1.10,2013-06-03 03:14:00,
2013-06-02 23:29:00,77.7,74.0,29.99,SW,236,0.0,-999.0,87,-99.99,,,0.00,0,weatherlink.com 1.10,2013-06-03 03:29:00,
2013-06-02 23:44:00,77.5,74.0,29.99,SW,236,0.0,-999.0,88,-99.99,,,0.00,0,weatherlink.com 1.10,2013-06-03 03:44:00,
2013-06-02 23:59:00,77.3,74.0,29.98,SW,236,0.0,-999.0,88,-99.99,,,0.00,0,weatherlink.com 1.10,2013-06-03 03:59:00,